PWSweather.com
Personal Weather Stations
Station Observations
PENICUIKWS
PenicuikGB

PenicuikGB

Lat: 55.830932, Lon: -3.224533000000065

Elevation: 166

Station Type: Fine Offset

http://weather.penicuik.org

High Low Average
Temperature 44.1°F6.7°C 34.2°F1.2°C 40.0°F4.4°C
Dew Point 42.2°F5.7°C 31.5°F-0.3°C 38.1°F3.4°C
Winds 3.6 mph 5.8 kmh Calm Calm 1.0 mph ESE1.6 kmh ESE
Wind Gusts 5.4 mph8.7 kmh -- 2.0 mph3.2 kmh
Humidity 95% 89% 93%
Pressure 29.58 in1001.7 mb 29.30 in992.2 mb -
Precipitation 0.02 in0.5 mm - -
Hour Temp Dew Point Humidity Winds Wind Gusts Pressure Precip Precip Rate Daily Precip Total
12:00 AM 36.7°F2.6°C 33.8°F1.0°C 89% 1.7 mph WSW2.7 kmh WSW 4.5 mph7.2 kmh 29.56 in1001.0 mb 0.00 in0.0 mm 0.00 in0.0 mm 0.00 in0.0 mm
12:15 AM 36.7°F2.6°C 33.8°F1.0°C 89% 1.9 mph WNW3.1 kmh WNW 3.1 mph5.0 kmh 29.56 in1001.0 mb 0.00 in0.0 mm 0.00 in0.0 mm 0.00 in0.0 mm
12:30 AM 37.4°F3.0°C 35.6°F2.0°C 93% 2.1 mph NW3.4 kmh NW 4.5 mph7.2 kmh 29.57 in1001.4 mb 0.00 in0.0 mm 0.00 in0.0 mm 0.00 in0.0 mm
12:45 AM 37.8°F3.2°C 35.9°F2.2°C 93% 0.9 mph W1.4 kmh W 2.2 mph3.5 kmh 29.57 in1001.4 mb 0.01 in0.3 mm 0.04 in1.0 mm 0.01 in0.3 mm
01:00 AM 37.9°F3.3°C 36.1°F2.3°C 93% 0.8 mph NW1.3 kmh NW 3.1 mph5.0 kmh 29.57 in1001.4 mb 0.01 in0.3 mm 0.00 in0.0 mm 0.01 in0.3 mm
01:15 AM 38.3°F3.5°C 36.7°F2.6°C 94% 1.8 mph NW2.9 kmh NW 3.8 mph6.1 kmh 29.57 in1001.4 mb 0.01 in0.3 mm 0.00 in0.0 mm 0.01 in0.3 mm
01:30 AM 38.7°F3.7°C 37.1°F2.8°C 94% 2.5 mph NW4.0 kmh NW 4.5 mph7.2 kmh 29.57 in1001.4 mb 0.01 in0.3 mm 0.00 in0.0 mm 0.01 in0.3 mm
01:45 AM 38.7°F3.7°C 37.1°F2.8°C 94% 2.5 mph N4.0 kmh N 4.5 mph7.2 kmh 29.58 in1001.7 mb 0.00 in0.0 mm 0.00 in0.0 mm 0.01 in0.3 mm
02:00 AM 38.5°F3.6°C 36.9°F2.7°C 94% 1.6 mph SW2.6 kmh SW 2.2 mph3.5 kmh 29.57 in1001.4 mb 0.00 in0.0 mm 0.00 in0.0 mm 0.01 in0.3 mm
02:15 AM 38.1°F3.4°C 36.6°F2.6°C 94% 0.9 mph N1.4 kmh N 3.1 mph5.0 kmh 29.58 in1001.7 mb 0.00 in0.0 mm 0.00 in0.0 mm 0.01 in0.3 mm
02:30 AM 37.6°F3.1°C 36.0°F2.2°C 94% 0.7 mph W1.1 kmh W 1.6 mph2.6 kmh 29.57 in1001.4 mb 0.00 in0.0 mm 0.00 in0.0 mm 0.01 in0.3 mm
02:45 AM 37.4°F3.0°C 35.8°F2.1°C 94% 0.8 mph W1.3 kmh W 3.1 mph5.0 kmh 29.57 in1001.4 mb 0.00 in0.0 mm 0.00 in0.0 mm 0.01 in0.3 mm
03:00 AM 37.4°F3.0°C 35.8°F2.1°C 94% 1.1 mph NNW1.8 kmh NNW 3.8 mph6.1 kmh 29.56 in1001.0 mb 0.00 in0.0 mm 0.00 in0.0 mm 0.01 in0.3 mm
03:01 AM 37.4°F3.0°C 35.8°F2.1°C 94% 1.0 mph NNW1.6 kmh NNW 3.8 mph6.1 kmh 29.57 in1001.4 mb 0.00 in0.0 mm 0.00 in0.0 mm 0.01 in0.3 mm
03:15 AM 37.6°F3.1°C 36.0°F2.2°C 94% 1.4 mph NW2.3 kmh NW 3.1 mph5.0 kmh 29.56 in1001.0 mb 0.00 in0.0 mm 0.00 in0.0 mm 0.01 in0.3 mm
03:30 AM 37.4°F3.0°C 35.8°F2.1°C 94% 2.0 mph NW3.2 kmh NW 3.8 mph6.1 kmh 29.56 in1001.0 mb 0.00 in0.0 mm 0.00 in0.0 mm 0.01 in0.3 mm
04:00 AM 36.5°F2.5°C 33.6°F0.9°C 89% 1.1 mph NNE1.8 kmh NNE 2.2 mph3.5 kmh 29.57 in1001.4 mb 0.00 in0.0 mm 0.00 in0.0 mm 0.01 in0.3 mm
04:15 AM 35.8°F2.1°C 32.9°F0.5°C 89% 1.0 mph N1.6 kmh N 1.6 mph2.6 kmh 29.57 in1001.4 mb 0.00 in0.0 mm 0.00 in0.0 mm 0.01 in0.3 mm
04:30 AM 35.8°F2.1°C 32.9°F0.5°C 89% 1.7 mph NNW2.7 kmh NNW 3.8 mph6.1 kmh 29.56 in1001.0 mb 0.00 in0.0 mm 0.00 in0.0 mm 0.01 in0.3 mm
04:45 AM 35.8°F2.1°C 32.9°F0.5°C 89% 0.7 mph W1.1 kmh W 1.6 mph2.6 kmh 29.55 in1000.7 mb 0.00 in0.0 mm 0.00 in0.0 mm 0.01 in0.3 mm
05:15 AM 35.2°F1.8°C 32.6°F0.3°C 90% 0.9 mph NW1.4 kmh NW 2.2 mph3.5 kmh 29.55 in1000.7 mb 0.00 in0.0 mm 0.00 in0.0 mm 0.01 in0.3 mm
05:30 AM 35.4°F1.9°C 32.8°F0.4°C 90% 0.7 mph WNW1.1 kmh WNW 1.6 mph2.6 kmh 29.54 in1000.3 mb 0.00 in0.0 mm 0.00 in0.0 mm 0.01 in0.3 mm
05:45 AM 35.2°F1.8°C 32.6°F0.3°C 90% 0.1 mph N0.2 kmh N 0.7 mph1.1 kmh 29.54 in1000.3 mb 0.00 in0.0 mm 0.00 in0.0 mm 0.01 in0.3 mm
06:00 AM 34.7°F1.5°C 32.1°F0.1°C 90% 0.2 mph S0.3 kmh S 0.7 mph1.1 kmh 29.55 in1000.7 mb 0.00 in0.0 mm 0.00 in0.0 mm 0.01 in0.3 mm
06:15 AM 34.3°F1.3°C 31.7°F-0.2°C 90% Calm Calm 0.7 mph1.1 kmh 29.54 in1000.3 mb 0.00 in0.0 mm 0.00 in0.0 mm 0.01 in0.3 mm
07:00 AM 34.2°F1.2°C 31.5°F-0.3°C 90% 0.1 mph S0.2 kmh S 0.7 mph1.1 kmh 29.55 in1000.7 mb 0.00 in0.0 mm 0.00 in0.0 mm 0.01 in0.3 mm
07:15 AM 34.3°F1.3°C 31.7°F-0.2°C 90% Calm Calm -- 29.55 in1000.7 mb 0.00 in0.0 mm 0.00 in0.0 mm 0.01 in0.3 mm
07:30 AM 34.9°F1.6°C 32.3°F0.2°C 90% 0.2 mph N0.3 kmh N 0.7 mph1.1 kmh 29.55 in1000.7 mb 0.00 in0.0 mm 0.00 in0.0 mm 0.01 in0.3 mm
07:45 AM 35.2°F1.8°C 32.9°F0.5°C 91% 0.5 mph SW0.8 kmh SW 1.6 mph2.6 kmh 29.55 in1000.7 mb 0.00 in0.0 mm 0.00 in0.0 mm 0.01 in0.3 mm
08:00 AM 35.4°F1.9°C 33.1°F0.6°C 91% Calm Calm 0.7 mph1.1 kmh 29.56 in1001.0 mb 0.00 in0.0 mm 0.00 in0.0 mm 0.01 in0.3 mm
08:15 AM 35.2°F1.8°C 32.9°F0.5°C 91% Calm Calm -- 29.55 in1000.7 mb 0.00 in0.0 mm 0.00 in0.0 mm 0.01 in0.3 mm
08:30 AM 35.2°F1.8°C 32.9°F0.5°C 91% Calm Calm -- 29.54 in1000.3 mb 0.00 in0.0 mm 0.00 in0.0 mm 0.01 in0.3 mm
08:45 AM 35.2°F1.8°C 32.9°F0.5°C 91% 0.2 mph S0.3 kmh S 0.7 mph1.1 kmh 29.55 in1000.7 mb 0.00 in0.0 mm 0.00 in0.0 mm 0.01 in0.3 mm
09:00 AM 35.4°F1.9°C 33.1°F0.6°C 91% 0.2 mph S0.3 kmh S 1.6 mph2.6 kmh 29.54 in1000.3 mb 0.00 in0.0 mm 0.00 in0.0 mm 0.01 in0.3 mm
09:15 AM 35.6°F2.0°C 33.0°F0.6°C 90% Calm Calm -- 29.54 in1000.3 mb 0.00 in0.0 mm 0.00 in0.0 mm 0.01 in0.3 mm
09:30 AM 35.8°F2.1°C 33.1°F0.6°C 90% Calm Calm -- 29.54 in1000.3 mb 0.00 in0.0 mm 0.00 in0.0 mm 0.01 in0.3 mm
09:45 AM 35.8°F2.1°C 33.1°F0.6°C 90% Calm Calm -- 29.53 in1000.0 mb 0.00 in0.0 mm 0.00 in0.0 mm 0.01 in0.3 mm
10:15 AM 36.7°F2.6°C 34.3°F1.3°C 91% 1.3 mph SW2.1 kmh SW 3.1 mph5.0 kmh 29.52 in999.7 mb 0.00 in0.0 mm 0.00 in0.0 mm 0.01 in0.3 mm
10:30 AM 38.1°F3.4°C 36.8°F2.7°C 95% 0.8 mph SW1.3 kmh SW 2.2 mph3.5 kmh 29.51 in999.3 mb 0.00 in0.0 mm 0.00 in0.0 mm 0.01 in0.3 mm
10:45 AM 38.8°F3.8°C 37.5°F3.1°C 95% 2.2 mph S3.5 kmh S 2.2 mph3.5 kmh 29.50 in999.0 mb 0.00 in0.0 mm 0.00 in0.0 mm 0.01 in0.3 mm
11:00 AM 40.1°F4.5°C 38.8°F3.8°C 95% 3.6 mph S5.8 kmh S 3.8 mph6.1 kmh 29.50 in999.0 mb 0.00 in0.0 mm 0.00 in0.0 mm 0.01 in0.3 mm
11:15 AM 41.9°F5.5°C 40.3°F4.6°C 94% 3.2 mph SW5.1 kmh SW 4.5 mph7.2 kmh 29.49 in998.6 mb 0.01 in0.3 mm 0.04 in1.0 mm 0.02 in0.5 mm
11:30 AM 42.6°F5.9°C 41.3°F5.2°C 95% 1.8 mph SW2.9 kmh SW 3.1 mph5.0 kmh 29.49 in998.6 mb 0.01 in0.3 mm 0.00 in0.0 mm 0.02 in0.5 mm
12:00 PM 43.2°F6.2°C 41.6°F5.3°C 94% 0.4 mph NNW0.6 kmh NNW 1.6 mph2.6 kmh 29.48 in998.3 mb 0.01 in0.3 mm 0.00 in0.0 mm 0.02 in0.5 mm
12:15 PM 43.3°F6.3°C 41.7°F5.4°C 94% 0.5 mph SSW0.8 kmh SSW 1.6 mph2.6 kmh 29.46 in997.6 mb 0.00 in0.0 mm 0.00 in0.0 mm 0.02 in0.5 mm
12:30 PM 43.3°F6.3°C 41.5°F5.3°C 93% 0.9 mph NW1.4 kmh NW 1.6 mph2.6 kmh 29.46 in997.6 mb 0.00 in0.0 mm 0.00 in0.0 mm 0.02 in0.5 mm
12:45 PM 43.5°F6.4°C 41.6°F5.3°C 93% 0.3 mph N0.5 kmh N 1.6 mph2.6 kmh 29.46 in997.6 mb 0.00 in0.0 mm 0.00 in0.0 mm 0.02 in0.5 mm
01:15 PM 44.1°F6.7°C 42.2°F5.7°C 93% Calm Calm -- 29.45 in997.3 mb 0.00 in0.0 mm 0.00 in0.0 mm 0.02 in0.5 mm
01:30 PM 44.1°F6.7°C 42.2°F5.7°C 93% Calm Calm -- 29.44 in997.0 mb 0.00 in0.0 mm 0.00 in0.0 mm 0.02 in0.5 mm
02:00 PM 43.9°F6.6°C 42.0°F5.6°C 93% 0.6 mph N1.0 kmh N 2.2 mph3.5 kmh 29.43 in996.6 mb 0.00 in0.0 mm 0.00 in0.0 mm 0.02 in0.5 mm
02:15 PM 43.9°F6.6°C 41.7°F5.4°C 92% 1.5 mph N2.4 kmh N 2.2 mph3.5 kmh 29.43 in996.6 mb 0.00 in0.0 mm 0.00 in0.0 mm 0.02 in0.5 mm
02:30 PM 43.5°F6.4°C 41.4°F5.2°C 92% 2.9 mph N4.7 kmh N 5.4 mph8.7 kmh 29.43 in996.6 mb 0.00 in0.0 mm 0.00 in0.0 mm 0.02 in0.5 mm
03:00 PM 43.2°F6.2°C 41.0°F5.0°C 92% 2.6 mph N4.2 kmh N 3.8 mph6.1 kmh 29.42 in996.3 mb 0.00 in0.0 mm 0.00 in0.0 mm 0.02 in0.5 mm
03:15 PM 43.2°F6.2°C 41.0°F5.0°C 92% 2.2 mph N3.5 kmh N 5.4 mph8.7 kmh 29.41 in995.9 mb 0.00 in0.0 mm 0.00 in0.0 mm 0.02 in0.5 mm
03:30 PM 42.8°F6.0°C 40.6°F4.8°C 92% 3.5 mph NNE5.6 kmh NNE 5.4 mph8.7 kmh 29.42 in996.3 mb 0.00 in0.0 mm 0.00 in0.0 mm 0.02 in0.5 mm
03:31 PM 42.8°F6.0°C 40.6°F4.8°C 92% 3.5 mph N5.6 kmh N 5.4 mph8.7 kmh 29.41 in995.9 mb 0.00 in0.0 mm 0.00 in0.0 mm 0.02 in0.5 mm
03:45 PM 42.4°F5.8°C 40.6°F4.8°C 93% 2.1 mph N3.4 kmh N 3.1 mph5.0 kmh 29.41 in995.9 mb 0.00 in0.0 mm 0.00 in0.0 mm 0.02 in0.5 mm
04:00 PM 42.4°F5.8°C 40.6°F4.8°C 93% 2.2 mph N3.5 kmh N 3.1 mph5.0 kmh 29.41 in995.9 mb 0.00 in0.0 mm 0.00 in0.0 mm 0.02 in0.5 mm
04:01 PM 42.3°F5.7°C 40.4°F4.7°C 93% 2.3 mph N3.7 kmh N 3.1 mph5.0 kmh 29.40 in995.6 mb 0.00 in0.0 mm 0.00 in0.0 mm 0.02 in0.5 mm
04:15 PM 42.3°F5.7°C 40.4°F4.7°C 93% 2.5 mph N4.0 kmh N 3.1 mph5.0 kmh 29.40 in995.6 mb 0.00 in0.0 mm 0.00 in0.0 mm 0.02 in0.5 mm
04:30 PM 42.3°F5.7°C 40.4°F4.7°C 93% 2.8 mph N4.5 kmh N 5.4 mph8.7 kmh 29.39 in995.3 mb 0.00 in0.0 mm 0.00 in0.0 mm 0.02 in0.5 mm
04:45 PM 42.3°F5.7°C 40.4°F4.7°C 93% 2.1 mph N3.4 kmh N 3.8 mph6.1 kmh 29.39 in995.3 mb 0.00 in0.0 mm 0.00 in0.0 mm 0.02 in0.5 mm
05:00 PM 42.3°F5.7°C 40.4°F4.7°C 93% 2.1 mph N3.4 kmh N 3.8 mph6.1 kmh 29.39 in995.3 mb 0.00 in0.0 mm 0.00 in0.0 mm 0.02 in0.5 mm
05:15 PM 42.1°F5.6°C 40.2°F4.6°C 93% 1.6 mph N2.6 kmh N 2.2 mph3.5 kmh 29.38 in994.9 mb 0.00 in0.0 mm 0.00 in0.0 mm 0.02 in0.5 mm
05:29 PM 42.1°F5.6°C 40.5°F4.7°C 94% 1.9 mph N3.1 kmh N 3.1 mph5.0 kmh 29.37 in994.6 mb 0.00 in0.0 mm 0.00 in0.0 mm 0.02 in0.5 mm
05:30 PM 42.1°F5.6°C 40.5°F4.7°C 94% 1.9 mph N3.1 kmh N 3.1 mph5.0 kmh 29.37 in994.6 mb 0.00 in0.0 mm 0.00 in0.0 mm 0.02 in0.5 mm
05:45 PM 42.1°F5.6°C 40.5°F4.7°C 94% 1.1 mph N1.8 kmh N 1.6 mph2.6 kmh 29.37 in994.6 mb 0.00 in0.0 mm 0.00 in0.0 mm 0.02 in0.5 mm
06:00 PM 42.1°F5.6°C 40.5°F4.7°C 94% 1.4 mph N2.3 kmh N 2.2 mph3.5 kmh 29.36 in994.2 mb 0.00 in0.0 mm 0.00 in0.0 mm 0.02 in0.5 mm
06:01 PM 42.1°F5.6°C 40.5°F4.7°C 94% 1.4 mph N2.3 kmh N 2.2 mph3.5 kmh 29.36 in994.2 mb 0.00 in0.0 mm 0.00 in0.0 mm 0.02 in0.5 mm
06:15 PM 41.7°F5.4°C 40.1°F4.5°C 94% 0.1 mph N0.2 kmh N 0.7 mph1.1 kmh 29.36 in994.2 mb 0.00 in0.0 mm 0.00 in0.0 mm 0.02 in0.5 mm
06:16 PM 41.9°F5.5°C 40.3°F4.6°C 94% 0.1 mph N0.2 kmh N 0.7 mph1.1 kmh 29.35 in993.9 mb 0.00 in0.0 mm 0.00 in0.0 mm 0.02 in0.5 mm
06:29 PM 41.9°F5.5°C 40.3°F4.6°C 94% Calm Calm 0.7 mph1.1 kmh 29.35 in993.9 mb 0.00 in0.0 mm 0.00 in0.0 mm 0.02 in0.5 mm
06:30 PM 41.9°F5.5°C 40.3°F4.6°C 94% Calm Calm 0.7 mph1.1 kmh 29.35 in993.9 mb 0.00 in0.0 mm 0.00 in0.0 mm 0.02 in0.5 mm
06:31 PM 41.9°F5.5°C 40.3°F4.6°C 94% 0.2 mph N0.3 kmh N 1.6 mph2.6 kmh 29.35 in993.9 mb 0.00 in0.0 mm 0.00 in0.0 mm 0.02 in0.5 mm
06:45 PM 41.9°F5.5°C 40.3°F4.6°C 94% 0.6 mph N1.0 kmh N 1.6 mph2.6 kmh 29.35 in993.9 mb 0.00 in0.0 mm 0.00 in0.0 mm 0.02 in0.5 mm
06:46 PM 41.7°F5.4°C 40.1°F4.5°C 94% 0.4 mph N0.6 kmh N 1.6 mph2.6 kmh 29.35 in993.9 mb 0.00 in0.0 mm 0.00 in0.0 mm 0.02 in0.5 mm
07:00 PM 41.9°F5.5°C 40.3°F4.6°C 94% Calm Calm -- 29.35 in993.9 mb 0.00 in0.0 mm 0.00 in0.0 mm 0.02 in0.5 mm
07:01 PM 41.9°F5.5°C 40.3°F4.6°C 94% Calm Calm -- 29.35 in993.9 mb 0.00 in0.0 mm 0.00 in0.0 mm 0.02 in0.5 mm
07:15 PM 41.7°F5.4°C 40.1°F4.5°C 94% Calm Calm -- 29.35 in993.9 mb 0.00 in0.0 mm 0.00 in0.0 mm 0.02 in0.5 mm
07:16 PM 41.7°F5.4°C 40.1°F4.5°C 94% Calm Calm -- 29.35 in993.9 mb 0.00 in0.0 mm 0.00 in0.0 mm 0.02 in0.5 mm
07:30 PM 41.7°F5.4°C 40.1°F4.5°C 94% Calm Calm -- 29.35 in993.9 mb 0.00 in0.0 mm 0.00 in0.0 mm 0.02 in0.5 mm
07:31 PM 41.9°F5.5°C 40.3°F4.6°C 94% Calm Calm -- 29.35 in993.9 mb 0.00 in0.0 mm 0.00 in0.0 mm 0.02 in0.5 mm
07:44 PM 41.7°F5.4°C 40.1°F4.5°C 94% Calm Calm -- 29.35 in993.9 mb 0.00 in0.0 mm 0.00 in0.0 mm 0.02 in0.5 mm
07:45 PM 41.7°F5.4°C 40.1°F4.5°C 94% Calm Calm -- 29.35 in993.9 mb 0.00 in0.0 mm 0.00 in0.0 mm 0.02 in0.5 mm
08:00 PM 41.9°F5.5°C 40.3°F4.6°C 94% Calm Calm -- 29.35 in993.9 mb 0.00 in0.0 mm 0.00 in0.0 mm 0.02 in0.5 mm
08:15 PM 41.9°F5.5°C 40.3°F4.6°C 94% Calm Calm -- 29.35 in993.9 mb 0.00 in0.0 mm 0.00 in0.0 mm 0.02 in0.5 mm
08:30 PM 41.9°F5.5°C 40.3°F4.6°C 94% 0.1 mph SW0.2 kmh SW 0.7 mph1.1 kmh 29.35 in993.9 mb 0.00 in0.0 mm 0.00 in0.0 mm 0.02 in0.5 mm
08:59 PM 41.9°F5.5°C 40.3°F4.6°C 94% Calm Calm -- 29.34 in993.6 mb 0.00 in0.0 mm 0.00 in0.0 mm 0.02 in0.5 mm
09:00 PM 41.9°F5.5°C 40.3°F4.6°C 94% Calm Calm -- 29.34 in993.6 mb 0.00 in0.0 mm 0.00 in0.0 mm 0.02 in0.5 mm
09:15 PM 41.5°F5.3°C 39.9°F4.4°C 94% Calm Calm -- 29.34 in993.6 mb 0.00 in0.0 mm 0.00 in0.0 mm 0.02 in0.5 mm
09:30 PM 41.5°F5.3°C 39.9°F4.4°C 94% Calm Calm -- 29.34 in993.6 mb 0.00 in0.0 mm 0.00 in0.0 mm 0.02 in0.5 mm
09:31 PM 41.5°F5.3°C 39.9°F4.4°C 94% Calm Calm -- 29.34 in993.6 mb 0.00 in0.0 mm 0.00 in0.0 mm 0.02 in0.5 mm
09:45 PM 41.4°F5.2°C 39.8°F4.3°C 94% Calm Calm -- 29.33 in993.2 mb 0.00 in0.0 mm 0.00 in0.0 mm 0.02 in0.5 mm
09:59 PM 41.4°F5.2°C 39.8°F4.3°C 94% 0.3 mph SW0.5 kmh SW 0.7 mph1.1 kmh 29.33 in993.2 mb 0.00 in0.0 mm 0.00 in0.0 mm 0.02 in0.5 mm
10:00 PM 41.4°F5.2°C 39.8°F4.3°C 94% 0.3 mph SW0.5 kmh SW 0.7 mph1.1 kmh 29.33 in993.2 mb 0.00 in0.0 mm 0.00 in0.0 mm 0.02 in0.5 mm
10:15 PM 41.4°F5.2°C 39.8°F4.3°C 94% Calm Calm -- 29.32 in992.9 mb 0.00 in0.0 mm 0.00 in0.0 mm 0.02 in0.5 mm
10:30 PM 41.4°F5.2°C 39.8°F4.3°C 94% Calm Calm 0.7 mph1.1 kmh 29.32 in992.9 mb 0.00 in0.0 mm 0.00 in0.0 mm 0.02 in0.5 mm
10:45 PM 41.4°F5.2°C 39.8°F4.3°C 94% Calm Calm -- 29.30 in992.2 mb 0.00 in0.0 mm 0.00 in0.0 mm 0.02 in0.5 mm
11:00 PM 41.2°F5.1°C 39.6°F4.2°C 94% Calm Calm -- 29.30 in992.2 mb 0.00 in0.0 mm 0.00 in0.0 mm 0.02 in0.5 mm
11:15 PM 41.2°F5.1°C 39.6°F4.2°C 94% Calm Calm -- 29.30 in992.2 mb 0.00 in0.0 mm 0.00 in0.0 mm 0.02 in0.5 mm
11:16 PM 41.2°F5.1°C 39.6°F4.2°C 94% Calm Calm -- 29.30 in992.2 mb 0.00 in0.0 mm 0.00 in0.0 mm 0.02 in0.5 mm
11:29 PM 41.2°F5.1°C 39.6°F4.2°C 94% 0.2 mph E0.3 kmh E 0.7 mph1.1 kmh 29.30 in992.2 mb 0.00 in0.0 mm 0.00 in0.0 mm 0.02 in0.5 mm
11:30 PM 41.2°F5.1°C 39.6°F4.2°C 94% 0.2 mph E0.3 kmh E 0.7 mph1.1 kmh 29.30 in992.2 mb 0.00 in0.0 mm 0.00 in0.0 mm 0.02 in0.5 mm
11:31 PM 41.2°F5.1°C 39.6°F4.2°C 94% 0.2 mph E0.3 kmh E 0.7 mph1.1 kmh 29.30 in992.2 mb 0.00 in0.0 mm 0.00 in0.0 mm 0.02 in0.5 mm
11:46 PM 41.2°F5.1°C 39.6°F4.2°C 94% 0.3 mph E0.5 kmh E 0.7 mph1.1 kmh 29.30 in992.2 mb 0.00 in0.0 mm 0.00 in0.0 mm 0.02 in0.5 mm